createdAt,value
2018-02-19T00:02:23.829Z,95234.74
2018-02-19T00:04:50.392Z,95239.05
2018-02-19T00:07:16.988Z,95242.53
2018-02-19T00:09:43.569Z,95240.52
2018-02-19T00:12:10.159Z,95242.67
2018-02-19T00:14:36.864Z,95242.82
2018-02-19T00:17:03.476Z,95226.17
2018-02-19T00:19:30.054Z,95242.55
2018-02-19T00:21:56.671Z,95229.95
2018-02-19T00:24:23.242Z,95238.45
2018-02-19T00:26:49.899Z,95243.20
2018-02-19T00:29:16.576Z,95243.90
2018-02-19T00:31:43.156Z,95244.33
2018-02-19T00:34:09.719Z,95235.32
2018-02-19T00:36:36.337Z,95239.18
2018-02-19T00:39:02.945Z,95230.16
2018-02-19T00:41:29.517Z,95230.16
2018-02-19T00:43:56.135Z,95228.13
2018-02-19T00:46:22.707Z,95232.80
2018-02-19T00:48:49.311Z,95225.03
2018-02-19T00:51:15.891Z,95229.83
2018-02-19T00:53:42.512Z,95225.94
2018-02-19T00:56:09.118Z,95236.25
2018-02-19T00:58:35.723Z,95240.78
2018-02-19T01:01:02.375Z,95221.37
2018-02-19T01:03:28.950Z,95233.56
2018-02-19T01:05:55.602Z,95233.30
2018-02-19T01:08:22.248Z,95225.37
2018-02-19T01:10:48.824Z,95236.64
2018-02-19T01:13:15.396Z,95229.80
2018-02-19T01:15:42.012Z,95218.41
2018-02-19T01:18:08.589Z,95227.75
2018-02-19T01:20:35.223Z,95233.82
2018-02-19T01:23:01.810Z,95229.25
2018-02-19T01:25:28.395Z,95230.17
2018-02-19T01:27:54.979Z,95231.00
2018-02-19T01:30:21.598Z,95209.55
2018-02-19T01:32:48.226Z,95226.80
2018-02-19T01:35:14.791Z,95225.32
2018-02-19T01:37:41.419Z,95218.09
2018-02-19T01:40:07.979Z,95228.69
2018-02-19T01:42:34.546Z,95224.00
2018-02-19T01:45:01.176Z,95215.95
2018-02-19T01:47:27.743Z,95230.55
2018-02-19T01:49:54.335Z,95228.01
2018-02-19T01:52:20.918Z,95221.85
2018-02-19T01:54:47.478Z,95216.72
2018-02-19T01:57:14.078Z,95224.92
2018-02-19T01:59:40.689Z,95222.13
2018-02-19T02:02:07.202Z,95230.27
2018-02-19T02:04:33.780Z,95219.31
2018-02-19T02:07:00.412Z,95230.00
2018-02-19T02:09:27.026Z,95230.12
2018-02-19T02:11:53.648Z,95232.02
2018-02-19T02:14:20.218Z,95230.39
2018-02-19T02:16:46.883Z,95227.85
2018-02-19T02:19:13.461Z,95221.55
2018-02-19T02:21:40.024Z,95224.50
2018-02-19T02:24:06.601Z,95220.99
2018-02-19T02:26:33.165Z,95217.78
2018-02-19T02:28:59.772Z,95212.44
2018-02-19T02:31:26.339Z,95220.19
2018-02-19T02:33:52.945Z,95216.06
2018-02-19T02:36:19.554Z,95215.64
2018-02-19T02:38:46.126Z,95210.01
2018-02-19T02:41:12.755Z,95212.57
2018-02-19T02:43:39.350Z,95221.16
2018-02-19T02:46:05.937Z,95219.93
2018-02-19T02:48:32.498Z,95221.94
2018-02-19T02:50:59.070Z,95222.48
2018-02-19T02:53:25.686Z,95222.50
2018-02-19T02:55:52.283Z,95203.31
2018-02-19T02:58:18.870Z,95223.94
2018-02-19T03:00:45.435Z,95218.20
2018-02-19T03:03:12.063Z,95226.62
2018-02-19T03:05:38.630Z,95213.91
2018-02-19T03:08:05.206Z,95224.36
2018-02-19T03:10:31.766Z,95217.95
2018-02-19T03:12:58.390Z,95219.25
2018-02-19T03:15:24.978Z,95216.02
2018-02-19T03:17:51.539Z,95210.69
2018-02-19T03:20:18.118Z,95214.17
2018-02-19T03:22:44.791Z,95201.03
2018-02-19T03:25:11.431Z,95214.16
2018-02-19T03:27:38.060Z,95209.74
2018-02-19T03:30:04.628Z,95200.64
2018-02-19T03:32:31.210Z,95200.38
2018-02-19T03:34:57.847Z,95199.28
2018-02-19T03:37:24.423Z,95209.19
2018-02-19T03:39:50.986Z,95207.88
2018-02-19T03:42:17.619Z,95206.50
2018-02-19T03:44:44.340Z,95204.52
2018-02-19T03:47:10.988Z,95207.20
2018-02-19T03:49:37.557Z,95201.28
2018-02-19T03:52:04.149Z,95203.71
2018-02-19T03:54:30.817Z,95188.05
2018-02-19T03:56:57.406Z,95204.52
2018-02-19T03:59:23.961Z,95204.09
2018-02-19T04:01:50.553Z,95193.39
2018-02-19T04:04:17.155Z,95206.64
2018-02-19T04:06:43.780Z,95198.75
2018-02-19T04:09:10.346Z,95199.56
2018-02-19T04:11:36.953Z,95202.77
2018-02-19T04:14:03.542Z,95204.16
2018-02-19T04:16:30.136Z,95208.41
2018-02-19T04:18:56.745Z,95205.05
2018-02-19T04:21:23.369Z,95205.47
2018-02-19T04:23:49.995Z,95208.53
2018-02-19T04:26:16.576Z,95207.33
2018-02-19T04:28:43.204Z,95177.33
2018-02-19T04:31:09.808Z,95196.61
2018-02-19T04:33:36.427Z,95204.64
2018-02-19T04:36:03.077Z,95202.05
2018-02-19T04:38:29.656Z,95202.64
2018-02-19T04:40:56.294Z,95208.66
2018-02-19T04:43:22.976Z,95201.39
2018-02-19T04:45:49.555Z,95197.23
2018-02-19T04:48:16.234Z,95199.64
2018-02-19T04:50:42.927Z,95202.97
2018-02-19T04:53:09.502Z,95209.69
2018-02-19T04:55:36.084Z,95202.84
2018-02-19T04:58:02.718Z,95213.39
2018-02-19T05:00:29.302Z,95208.55
2018-02-19T05:02:55.902Z,95209.36
2018-02-19T05:05:22.562Z,95212.73
2018-02-19T05:07:49.216Z,95217.91
2018-02-19T05:10:15.813Z,95213.39
2018-02-19T05:12:42.463Z,95222.77
2018-02-19T05:15:09.045Z,95214.31
2018-02-19T05:17:35.698Z,95216.33
2018-02-19T05:20:02.290Z,95223.84
2018-02-19T05:22:28.911Z,95218.62
2018-02-19T05:24:55.483Z,95220.92
2018-02-19T05:27:22.122Z,95221.67
2018-02-19T05:29:48.746Z,95228.52
2018-02-19T05:32:15.349Z,95226.03
2018-02-19T05:34:41.968Z,95224.66
2018-02-19T05:37:08.673Z,95231.81
2018-02-19T05:39:35.233Z,95232.85
2018-02-19T05:42:01.807Z,95235.34
2018-02-19T05:44:28.405Z,95241.20
2018-02-19T05:46:55.126Z,95235.75
2018-02-19T05:49:21.737Z,95240.22
2018-02-19T05:51:48.298Z,95241.88
2018-02-19T05:54:14.880Z,95256.52
2018-02-19T05:56:41.514Z,95228.66
2018-02-19T05:59:08.085Z,95255.58
2018-02-19T06:01:34.698Z,95251.42
2018-02-19T06:04:01.257Z,95247.02
2018-02-19T06:06:27.816Z,95250.23
2018-02-19T06:08:54.425Z,95248.63
2018-02-19T06:11:21.003Z,95259.59
2018-02-19T06:13:47.662Z,95247.17
2018-02-19T06:16:14.282Z,95257.54
2018-02-19T06:18:40.920Z,95267.59
2018-02-19T06:21:07.486Z,95263.59
2018-02-19T06:23:34.084Z,95258.00
2018-02-19T06:26:00.663Z,95268.58
2018-02-19T06:28:27.282Z,95268.84
2018-02-19T06:30:53.874Z,95248.58
2018-02-19T06:33:20.512Z,95250.18
2018-02-19T06:35:47.126Z,95265.46
2018-02-19T06:38:13.692Z,95267.34
2018-02-19T06:40:40.259Z,95244.35
2018-02-19T06:43:06.883Z,95266.01
2018-02-19T06:45:33.463Z,95263.46
2018-02-19T06:48:00.119Z,95275.53
2018-02-19T06:50:26.747Z,95192.31
2018-02-19T06:52:53.350Z,95270.06
2018-02-19T06:55:19.969Z,95285.64
2018-02-19T06:57:46.586Z,95281.24
2018-02-19T07:00:13.209Z,95277.47
2018-02-19T07:02:39.873Z,95260.93
2018-02-19T07:05:06.446Z,95261.03
2018-02-19T07:07:33.222Z,95270.70
2018-02-19T07:09:59.847Z,95267.33
2018-02-19T07:12:26.432Z,95253.49
2018-02-19T07:14:53.055Z,95275.09
2018-02-19T07:17:19.685Z,95267.06
2018-02-19T07:19:46.312Z,95273.64
2018-02-19T07:22:12.925Z,95256.38
2018-02-19T07:24:39.563Z,95218.45
2018-02-19T07:27:06.163Z,95244.40
2018-02-19T07:29:32.753Z,95253.45
2018-02-19T07:31:59.343Z,95274.40
2018-02-19T07:34:25.976Z,95271.33
2018-02-19T07:36:52.610Z,95268.52
2018-02-19T07:39:19.253Z,95250.80
2018-02-19T07:41:45.881Z,95243.02
2018-02-19T07:44:12.746Z,95251.25
2018-02-19T07:46:39.350Z,95277.65
2018-02-19T07:49:05.938Z,95267.87
2018-02-19T07:51:33.525Z,95269.72
2018-02-19T07:54:00.271Z,95247.66
2018-02-19T07:56:26.849Z,95263.95
2018-02-19T07:58:53.444Z,95232.91
2018-02-19T08:01:20.134Z,95276.97
2018-02-19T08:03:46.741Z,95269.14
2018-02-19T08:06:13.431Z,95249.09
2018-02-19T08:08:40.033Z,95251.56
2018-02-19T08:11:06.766Z,95269.01
2018-02-19T08:13:33.356Z,95244.81
2018-02-19T08:15:59.935Z,95207.31
2018-02-19T08:18:26.507Z,95267.98
2018-02-19T08:20:53.146Z,95285.64
2018-02-19T08:23:19.797Z,95274.04
2018-02-19T08:25:46.437Z,95252.13
2018-02-19T08:28:13.023Z,95264.78
2018-02-19T08:30:43.618Z,95256.29
2018-02-19T08:33:14.893Z,95277.51
2018-02-19T08:35:41.649Z,95234.41
2018-02-19T08:38:17.603Z,95276.91
2018-02-19T08:40:47.665Z,95247.67
2018-02-19T08:43:14.306Z,95267.36
2018-02-19T08:45:43.699Z,95274.06
2018-02-19T08:48:21.146Z,95282.58
2018-02-19T10:37:38.027Z,95218.30
2018-02-19T10:40:16.349Z,95236.28
2018-02-19T10:42:50.070Z,95233.78
2018-02-19T10:45:16.644Z,95232.27
2018-02-19T10:47:43.997Z,95228.84
2018-02-19T10:50:12.769Z,95230.52
2018-02-19T10:52:39.462Z,95225.14
2018-02-19T10:55:06.063Z,95221.23
2018-02-19T10:57:32.725Z,95224.75
2018-02-19T10:59:59.851Z,95224.21
2018-02-19T11:02:27.376Z,95221.01
2018-02-19T11:04:53.068Z,95223.75
2018-02-19T11:07:19.630Z,95212.19
2018-02-19T11:09:46.253Z,95210.56
2018-02-19T11:12:12.879Z,95204.92
2018-02-19T11:14:39.509Z,95204.52
2018-02-19T11:17:06.116Z,95203.46
2018-02-19T11:19:32.760Z,95205.72
2018-02-19T11:21:59.336Z,95201.89
2018-02-19T11:24:25.942Z,95197.02
2018-02-19T11:26:52.502Z,95205.38
2018-02-19T11:29:19.124Z,95193.31
2018-02-19T11:31:45.716Z,95199.26
2018-02-19T11:34:27.206Z,95196.20
2018-02-19T11:36:53.956Z,95197.77
2018-02-19T11:39:20.523Z,95196.45
2018-02-19T11:41:47.145Z,95195.51
2018-02-19T11:44:13.915Z,95190.05
2018-02-19T11:46:40.538Z,95195.51
2018-02-19T11:49:07.252Z,95186.41
2018-02-19T11:51:33.810Z,95185.80
2018-02-19T11:54:00.436Z,95190.38
2018-02-19T11:56:27.048Z,95180.23
2018-02-19T11:58:53.700Z,95180.62
2018-02-19T12:01:20.327Z,95178.59
2018-02-19T12:03:46.919Z,95184.23
2018-02-19T12:06:13.508Z,95186.28
2018-02-19T12:08:40.215Z,95192.27
2018-02-19T12:11:06.988Z,95186.92
2018-02-19T12:13:33.555Z,95184.83
2018-02-19T12:16:00.366Z,95193.38
2018-02-19T12:18:27.065Z,95184.80
2018-02-19T12:20:53.644Z,95183.64
2018-02-19T12:23:20.229Z,95189.08
2018-02-19T12:25:46.863Z,95188.70
2018-02-19T12:28:13.452Z,95175.73
2018-02-19T12:30:45.964Z,95180.48
2018-02-19T12:33:12.816Z,95185.86
2018-02-19T12:35:39.546Z,95151.11
2018-02-19T12:38:06.211Z,95179.17
2018-02-19T12:40:32.860Z,95139.58
2018-02-19T12:42:59.476Z,95157.08
2018-02-19T12:45:26.297Z,95171.52
2018-02-19T12:50:47.084Z,95150.78
2018-02-19T12:56:05.719Z,95176.85
2018-02-19T13:04:12.866Z,95148.96
2018-02-19T13:06:55.187Z,95156.85
2018-02-19T13:09:21.912Z,95171.93
2018-02-19T13:11:50.137Z,95158.23
2018-02-19T13:14:16.758Z,95125.19
2018-02-19T13:16:43.328Z,95138.48
2018-02-19T13:19:09.919Z,95144.36
2018-02-19T13:21:38.663Z,95175.70
2018-02-19T13:24:05.882Z,95146.36
2018-02-19T13:26:32.709Z,95145.50
2018-02-19T13:31:45.479Z,95127.41
2018-02-19T13:34:28.338Z,95162.89
2018-02-19T13:36:55.046Z,95154.98
2018-02-19T13:42:27.752Z,95162.30
2018-02-19T13:50:27.327Z,95128.36
2018-02-19T13:52:53.930Z,95133.14
2018-02-19T13:55:20.702Z,95144.98
2018-02-19T13:57:54.574Z,95145.92
2018-02-19T14:00:21.397Z,95136.44
2018-02-19T14:02:48.005Z,95136.80
2018-02-19T14:05:14.706Z,95164.05
2018-02-19T14:07:41.426Z,95147.18
2018-02-19T14:10:08.422Z,95150.42
2018-02-19T14:12:35.355Z,95149.81
2018-02-19T14:15:01.926Z,95144.66
2018-02-19T14:17:28.539Z,95153.73
2018-02-19T14:19:55.230Z,95148.81
2018-02-19T14:22:21.837Z,95146.70
2018-02-19T14:24:48.512Z,95148.59
2018-02-19T14:27:15.096Z,95136.31
2018-02-19T14:29:41.677Z,95143.53
2018-02-19T14:32:09.287Z,95141.05
2018-02-19T14:34:35.863Z,95141.23
2018-02-19T14:37:02.437Z,95141.05
2018-02-19T14:39:29.012Z,95143.22
2018-02-19T14:41:55.673Z,95140.94
2018-02-19T14:44:22.261Z,95138.17
2018-02-19T14:46:48.875Z,95143.18
2018-02-19T14:49:15.698Z,95145.01
2018-02-19T14:51:44.735Z,95146.67
2018-02-19T14:54:11.369Z,95149.20
2018-02-19T14:56:38.037Z,95147.28
2018-02-19T14:59:04.630Z,95141.32
2018-02-19T15:01:31.264Z,95144.50
2018-02-19T15:03:57.837Z,95143.03
2018-02-19T15:06:24.420Z,95140.75
2018-02-19T15:08:51.087Z,95143.55
2018-02-19T15:11:21.829Z,95116.28
2018-02-19T15:13:48.547Z,95132.05
2018-02-19T15:16:15.135Z,95136.80
2018-02-19T15:18:41.707Z,95136.59
2018-02-19T15:21:08.323Z,95145.03
2018-02-19T15:23:34.893Z,95139.17
2018-02-19T15:26:01.527Z,95145.41
2018-02-19T15:28:28.121Z,95154.09
2018-02-19T15:30:54.810Z,95147.97
2018-02-19T15:33:21.377Z,95149.00
2018-02-19T15:35:47.985Z,95149.61
2018-02-19T15:38:14.653Z,95149.95
2018-02-19T15:40:41.246Z,95148.34
2018-02-19T15:43:07.835Z,95155.02
2018-02-19T15:45:34.414Z,95146.47
2018-02-19T15:48:00.999Z,95147.64
2018-02-19T15:50:27.568Z,95143.23
2018-02-19T15:52:54.177Z,95150.66
2018-02-19T15:55:20.927Z,95155.58
2018-02-19T15:57:47.658Z,95153.44
2018-02-19T16:00:14.340Z,95158.08
2018-02-19T16:02:40.918Z,95159.27
2018-02-19T16:05:07.521Z,95158.63
2018-02-19T16:07:34.088Z,95164.58
2018-02-19T16:10:00.695Z,95160.23
2018-02-19T16:12:27.347Z,95157.26
2018-02-19T16:14:53.952Z,95165.04
2018-02-19T16:17:20.628Z,95165.06
2018-02-19T16:19:47.233Z,95166.95
2018-02-19T16:22:13.804Z,95165.89
2018-02-19T16:24:40.408Z,95168.93
2018-02-19T16:27:06.972Z,95176.22
2018-02-19T16:29:33.580Z,95170.32
2018-02-19T16:32:00.186Z,95178.78
2018-02-19T16:34:26.757Z,95176.92
2018-02-19T16:36:53.473Z,95172.67
2018-02-19T16:39:20.037Z,95174.39
2018-02-19T16:41:46.600Z,95181.09
2018-02-19T16:44:13.211Z,95178.82
2018-02-19T16:46:39.815Z,95181.92
2018-02-19T16:49:06.425Z,95182.20
2018-02-19T16:51:33.050Z,95185.74
2018-02-19T16:53:59.636Z,95184.44
2018-02-19T16:56:26.259Z,95188.36
2018-02-19T16:58:52.856Z,95187.81
2018-02-19T17:01:19.428Z,95184.63
2018-02-19T17:03:46.036Z,95190.79
2018-02-19T17:06:12.612Z,95187.58
2018-02-19T17:08:39.218Z,95187.98
2018-02-19T17:11:05.879Z,95182.06
2018-02-19T17:13:32.489Z,95186.38
2018-02-19T17:15:59.046Z,95184.75
2018-02-19T17:18:25.676Z,95185.50
2018-02-19T17:20:52.245Z,95187.67
2018-02-19T17:23:18.805Z,95183.55
2018-02-19T17:25:45.378Z,95183.45
2018-02-19T17:28:11.954Z,95182.38
2018-02-19T17:30:38.553Z,95186.41
2018-02-19T17:33:05.121Z,95191.26
2018-02-19T17:35:31.726Z,95190.17
2018-02-19T17:37:58.333Z,95188.45
2018-02-19T17:40:24.937Z,95184.70
2018-02-19T17:42:51.555Z,95179.59
2018-02-19T17:45:18.116Z,95184.97
2018-02-19T17:47:44.679Z,95189.28
2018-02-19T17:50:11.371Z,95182.30
2018-02-19T17:52:37.929Z,95178.55
2018-02-19T17:55:04.518Z,95176.19
2018-02-19T17:57:32.156Z,95177.58
2018-02-19T17:59:58.719Z,95176.24
2018-02-19T18:02:25.286Z,95172.59
2018-02-19T18:04:51.853Z,95180.81
2018-02-19T18:07:18.430Z,95179.87
2018-02-19T18:09:45.013Z,95175.84
2018-02-19T18:12:11.585Z,95184.45
2018-02-19T18:14:38.144Z,95181.09
2018-02-19T18:17:04.769Z,95184.30
2018-02-19T18:19:31.436Z,95182.98
2018-02-19T18:21:58.055Z,95183.13
2018-02-19T18:24:24.625Z,95180.00
2018-02-19T18:26:51.181Z,95179.59
2018-02-19T18:29:17.885Z,95189.17
2018-02-19T18:31:44.442Z,95176.28
2018-02-19T18:34:11.063Z,95180.88
2018-02-19T18:36:37.612Z,95179.79
2018-02-19T18:39:04.253Z,95182.88
2018-02-19T18:41:30.846Z,95178.98
2018-02-19T18:43:57.402Z,95178.39
2018-02-19T18:46:23.964Z,95176.47
2018-02-19T18:48:50.559Z,95175.36
2018-02-19T18:51:17.125Z,95178.47
2018-02-19T18:53:43.713Z,95177.41
2018-02-19T18:56:10.283Z,95173.66
2018-02-19T18:58:36.895Z,95178.23
2018-02-19T19:01:03.457Z,95174.89
2018-02-19T19:03:30.023Z,95175.80
2018-02-19T19:05:56.584Z,95168.28
2018-02-19T19:08:23.198Z,95166.42
2018-02-19T19:10:49.833Z,95170.16
2018-02-19T19:13:16.393Z,95169.64
2018-02-19T19:15:42.984Z,95169.10
2018-02-19T19:18:09.661Z,95166.84
2018-02-19T19:20:36.194Z,95166.46
2018-02-19T19:23:02.793Z,95164.03
2018-02-19T19:25:29.365Z,95165.80
2018-02-19T19:27:55.969Z,95158.83
2018-02-19T19:30:22.566Z,95160.84
2018-02-19T19:32:49.125Z,95162.99
2018-02-19T19:35:15.734Z,95160.19
2018-02-19T19:37:42.422Z,95153.36
2018-02-19T19:40:08.981Z,95160.89
2018-02-19T19:42:35.553Z,95157.50
2018-02-19T19:45:02.150Z,95154.57
2018-02-19T19:47:28.757Z,95165.17
2018-02-19T19:49:55.366Z,95153.13
2018-02-19T19:52:21.928Z,95157.00
2018-02-19T19:54:48.571Z,95155.25
2018-02-19T19:57:15.131Z,95153.93
2018-02-19T19:59:41.841Z,95151.11
2018-02-19T20:02:08.574Z,95150.44
2018-02-19T20:04:35.138Z,95146.44
2018-02-19T20:07:01.742Z,95147.50
2018-02-19T20:09:28.301Z,95145.47
2018-02-19T20:11:54.870Z,95139.98
2018-02-19T20:14:21.430Z,95148.18
2018-02-19T20:16:48.041Z,95146.02
2018-02-19T20:19:14.622Z,95144.03
2018-02-19T20:21:41.254Z,95145.75
2018-02-19T20:24:07.867Z,95144.43
2018-02-19T20:26:34.425Z,95142.69
2018-02-19T20:29:01.080Z,95139.32
2018-02-19T20:31:27.642Z,95136.25
2018-02-19T20:33:54.208Z,95134.77
2018-02-19T20:36:20.885Z,95134.89
2018-02-19T20:38:47.494Z,95132.77
2018-02-19T20:41:14.086Z,95131.97
2018-02-19T20:43:40.685Z,95131.98
2018-02-19T20:46:07.269Z,95130.65
2018-02-19T20:48:33.834Z,95123.81
2018-02-19T20:51:00.428Z,95128.38
2018-02-19T20:53:26.984Z,95130.13
2018-02-19T20:55:53.647Z,95124.61
2018-02-19T20:58:20.278Z,95124.20
2018-02-19T21:00:46.895Z,95125.27
2018-02-19T21:03:13.456Z,95123.41
2018-02-19T21:05:40.030Z,95120.86
2018-02-19T21:08:06.603Z,95129.86
2018-02-19T21:10:33.320Z,95123.30
2018-02-19T21:12:59.927Z,95128.83
2018-02-19T21:15:26.475Z,95125.20
2018-02-19T21:17:53.037Z,95125.63
2018-02-19T21:20:19.608Z,95120.66
2018-02-19T21:22:46.170Z,95119.20
2018-02-19T21:25:12.771Z,95116.79
2018-02-19T21:27:39.352Z,95118.66
2018-02-19T21:30:05.926Z,95121.36
2018-02-19T21:32:32.516Z,95116.78
2018-02-19T21:34:59.133Z,95118.02
2018-02-19T21:37:25.702Z,95113.59
2018-02-19T21:39:52.265Z,95119.34
2018-02-19T21:42:18.875Z,95118.66
2018-02-19T21:44:45.439Z,95120.56
2018-02-19T21:47:12.001Z,95122.84
2018-02-19T21:49:38.574Z,95120.16
2018-02-19T21:52:05.182Z,95117.06
2018-02-19T21:54:31.745Z,95115.86
2018-02-19T21:56:58.311Z,95114.80
2018-02-19T21:59:24.934Z,95116.26
2018-02-19T22:01:51.533Z,95118.97
2018-02-19T22:04:18.118Z,95120.45
2018-02-19T22:06:44.675Z,95116.70
2018-02-19T22:09:11.246Z,95119.64
2018-02-19T22:11:37.804Z,95123.80
2018-02-19T22:14:04.373Z,95116.54
2018-02-19T22:16:30.958Z,95120.19
2018-02-19T22:18:57.558Z,95117.50
2018-02-19T22:21:24.124Z,95123.81
2018-02-19T22:23:50.734Z,95119.91
2018-02-19T22:26:17.301Z,95119.38
2018-02-19T22:28:43.890Z,95114.14
2018-02-19T22:31:10.486Z,95116.58
2018-02-19T22:33:37.085Z,95111.32
2018-02-19T22:36:03.653Z,95110.80
2018-02-19T22:38:30.216Z,95114.27
2018-02-19T22:40:56.779Z,95105.96
2018-02-19T22:43:23.417Z,95103.03
2018-02-19T22:45:49.976Z,95109.31
2018-02-19T22:48:16.543Z,95111.72
2018-02-19T22:50:43.119Z,95102.63
2018-02-19T22:53:09.680Z,95106.77
2018-02-19T22:55:36.261Z,95104.92
2018-02-19T22:58:02.830Z,95100.58
2018-02-19T23:00:29.401Z,95099.54
2018-02-19T23:02:55.968Z,95092.55
2018-02-19T23:05:22.534Z,95099.00
2018-02-19T23:07:49.117Z,95100.08
2018-02-19T23:10:15.713Z,95096.07
2018-02-19T23:12:42.339Z,95099.95
2018-02-19T23:15:08.896Z,95097.66
2018-02-19T23:17:35.505Z,95091.36
2018-02-19T23:20:02.067Z,95082.38
2018-02-19T23:22:28.630Z,95084.56
2018-02-19T23:24:55.244Z,95081.72
2018-02-19T23:27:21.860Z,95084.67
2018-02-19T23:29:48.478Z,95083.08
2018-02-19T23:32:15.150Z,95075.83
2018-02-19T23:34:41.752Z,95082.55
2018-02-19T23:37:08.367Z,95080.42
2018-02-19T23:39:34.955Z,95081.88
2018-02-19T23:42:01.567Z,95078.44
2018-02-19T23:44:28.129Z,95082.84
2018-02-19T23:46:54.828Z,95075.89
2018-02-19T23:49:21.396Z,95074.81
2018-02-19T23:51:48.019Z,95076.29
2018-02-19T23:54:14.623Z,95070.92
2018-02-19T23:56:41.187Z,95069.18
2018-02-19T23:59:07.793Z,95070.50
